createdAt,value
2022-12-22T00:01:46.538Z,6.50
2022-12-22T00:07:11.810Z,6.50
2022-12-22T00:12:35.654Z,6.50
2022-12-22T00:17:57.803Z,6.50
2022-12-22T00:23:19.928Z,6.50
2022-12-22T00:28:42.332Z,6.50
2022-12-22T00:34:04.595Z,6.50
2022-12-22T00:39:32.903Z,6.40
2022-12-22T00:44:54.970Z,6.40
2022-12-22T00:50:17.163Z,6.40
2022-12-22T00:55:45.531Z,6.40
2022-12-22T01:01:07.698Z,6.40
2022-12-22T01:06:30.762Z,6.50
2022-12-22T01:11:53.933Z,6.40
2022-12-22T01:17:16.087Z,6.40
2022-12-22T01:22:41.510Z,6.30
2022-12-22T01:28:03.668Z,6.20
2022-12-22T01:33:27.685Z,6.20
2022-12-22T01:38:50.079Z,6.20
2022-12-22T01:44:12.160Z,6.20
2022-12-22T01:49:57.842Z,6.20
2022-12-22T01:55:24.353Z,6.20
2022-12-22T02:00:46.709Z,6.20
2022-12-22T02:06:34.328Z,6.10
2022-12-22T02:22:44.859Z,6.10
2022-12-22T02:28:09.683Z,6.10
2022-12-22T02:33:32.571Z,6.10
2022-12-22T02:39:15.459Z,6.10
2022-12-22T02:45:02.613Z,6.00
2022-12-22T02:55:39.388Z,6.00
2022-12-22T03:01:01.755Z,5.90
2022-12-22T03:06:24.064Z,5.90
2022-12-22T03:11:46.251Z,5.90
2022-12-22T03:17:08.383Z,5.80
2022-12-22T03:22:30.512Z,5.80
2022-12-22T03:27:32.749Z,5.80
2022-12-22T03:32:35.030Z,5.70
2022-12-22T03:37:37.290Z,5.70
2022-12-22T03:42:59.453Z,5.60
2022-12-22T03:48:01.675Z,5.60
2022-12-22T03:53:05.061Z,5.60
2022-12-22T03:58:07.295Z,5.60
2022-12-22T04:03:09.751Z,5.60
2022-12-22T04:08:12.151Z,5.60
2022-12-22T04:13:14.373Z,5.60
2022-12-22T04:18:16.559Z,5.50
2022-12-22T04:23:18.817Z,5.50
2022-12-22T04:28:21.115Z,5.50
2022-12-22T04:33:23.361Z,5.40
2022-12-22T04:38:25.593Z,5.40
2022-12-22T04:43:28.170Z,5.40
2022-12-22T04:48:31.651Z,5.30
2022-12-22T04:53:34.309Z,5.20
2022-12-22T04:58:37.042Z,5.20
2022-12-22T05:03:39.680Z,5.20
2022-12-22T05:08:42.054Z,5.20
2022-12-22T05:13:44.288Z,5.20
2022-12-22T05:18:46.849Z,5.30
2022-12-22T05:23:49.977Z,5.20
2022-12-22T05:28:52.663Z,5.20
2022-12-22T05:33:55.003Z,5.20
2022-12-22T05:38:57.263Z,5.10
2022-12-22T05:43:59.493Z,5.10
2022-12-22T05:49:01.740Z,5.20
2022-12-22T05:54:04.106Z,5.30
2022-12-22T05:59:06.451Z,5.40
2022-12-22T06:04:08.794Z,5.50
2022-12-22T06:09:11.108Z,5.50
2022-12-22T06:14:13.474Z,5.50
2022-12-22T06:19:15.746Z,5.60
2022-12-22T06:24:18.038Z,5.60
2022-12-22T06:29:20.392Z,5.70
2022-12-22T06:34:22.572Z,5.80
2022-12-22T06:39:24.882Z,5.80
2022-12-22T06:44:27.394Z,6.00
2022-12-22T06:49:29.666Z,6.10
2022-12-22T06:54:31.973Z,6.30
2022-12-22T06:59:34.253Z,6.40
2022-12-22T07:04:36.580Z,6.50
2022-12-22T07:09:38.790Z,6.60
2022-12-22T07:14:41.138Z,6.70
2022-12-22T07:19:43.577Z,6.70
2022-12-22T07:24:45.780Z,6.70
2022-12-22T07:29:48.039Z,6.90
2022-12-22T07:34:50.260Z,6.90
2022-12-22T07:39:52.440Z,6.80
2022-12-22T07:44:54.665Z,7.10
2022-12-22T07:50:16.763Z,7.40
2022-12-22T07:55:19.847Z,9.50
2022-12-22T08:00:23.767Z,11.60
2022-12-22T08:05:26.221Z,13.50
2022-12-22T08:10:28.448Z,14.90
2022-12-22T08:15:30.741Z,15.90
2022-12-22T08:20:33.210Z,16.70
2022-12-22T08:25:35.749Z,17.20
2022-12-22T08:30:38.542Z,17.30
2022-12-22T08:35:41.196Z,17.90
2022-12-22T08:40:44.829Z,18.90
2022-12-22T08:45:47.103Z,19.40
2022-12-22T08:50:49.296Z,19.50
2022-12-22T08:55:53.563Z,19.80
2022-12-22T09:00:55.944Z,20.00
2022-12-22T09:06:02.363Z,19.10
2022-12-22T09:11:05.306Z,17.50
2022-12-22T09:16:09.124Z,16.00
2022-12-22T09:21:11.686Z,15.10
2022-12-22T09:26:17.229Z,14.30
2022-12-22T09:31:20.932Z,13.90
2022-12-22T09:36:27.027Z,13.30
2022-12-22T09:46:41.465Z,12.20
2022-12-22T09:51:48.156Z,11.80
2022-12-22T09:56:50.390Z,11.60
2022-12-22T10:02:17.788Z,11.40
2022-12-22T10:12:30.243Z,11.30
2022-12-22T10:17:34.404Z,10.80
2022-12-22T10:22:47.265Z,10.50
2022-12-22T10:27:51.611Z,10.70
2022-12-22T10:33:16.069Z,10.60
2022-12-22T10:43:38.430Z,10.30
2022-12-22T10:48:41.007Z,9.60
2022-12-22T10:53:55.820Z,9.70
2022-12-22T10:59:16.271Z,9.50
2022-12-22T11:04:28.041Z,9.60
2022-12-22T11:09:34.944Z,9.30
2022-12-22T11:15:23.803Z,9.30
2022-12-22T11:36:32.691Z,9.20
2022-12-22T11:41:52.369Z,9.40
2022-12-22T11:47:20.235Z,9.40
2022-12-22T11:52:58.377Z,9.30
2022-12-22T11:58:23.583Z,9.30
2022-12-22T12:08:58.910Z,9.20
2022-12-22T12:14:40.930Z,9.20
2022-12-22T12:20:14.974Z,9.20
2022-12-22T12:30:47.598Z,9.50
2022-12-22T12:41:14.445Z,9.40
2022-12-22T12:52:11.372Z,9.70
2022-12-22T13:02:57.766Z,9.80
2022-12-22T13:18:49.828Z,9.60
2022-12-22T13:39:27.449Z,9.50
2022-12-22T13:44:32.672Z,9.30
2022-12-22T13:50:07.293Z,9.20
2022-12-22T13:54:57.878Z,9.20
2022-12-22T14:00:00.202Z,9.10
2022-12-22T14:05:07.429Z,9.10
2022-12-22T14:10:11.032Z,9.20
2022-12-22T14:15:19.086Z,9.10
2022-12-22T14:20:43.007Z,9.00
2022-12-22T14:25:46.383Z,9.00
2022-12-22T14:30:53.589Z,9.00
2022-12-22T14:36:23.783Z,8.80
2022-12-22T14:41:46.856Z,8.80
2022-12-22T14:52:39.551Z,8.80
2022-12-22T14:57:43.230Z,8.80
2022-12-22T15:02:52.178Z,8.80
2022-12-22T15:08:06.686Z,8.70
2022-12-22T15:13:24.087Z,8.60
2022-12-22T15:18:28.629Z,8.70
2022-12-22T15:23:31.015Z,8.60
2022-12-22T15:28:33.531Z,8.70
2022-12-22T15:33:35.917Z,8.70
2022-12-22T15:38:39.342Z,8.80
2022-12-22T15:43:58.740Z,8.80
2022-12-22T15:49:02.134Z,8.90
2022-12-22T15:54:04.834Z,8.80
2022-12-22T15:59:14.869Z,8.90
2022-12-22T16:04:18.161Z,8.80
2022-12-22T16:09:24.224Z,8.80
2022-12-22T16:14:26.908Z,8.80
2022-12-22T16:19:29.340Z,8.90
2022-12-22T16:24:35.478Z,8.80
2022-12-22T16:29:38.833Z,8.80
2022-12-22T16:34:41.444Z,8.70
2022-12-22T16:39:44.405Z,8.70
2022-12-22T16:45:00.959Z,8.60
2022-12-22T16:50:03.750Z,8.50
2022-12-22T16:55:16.055Z,8.50
2022-12-22T17:00:21.645Z,8.50
2022-12-22T17:10:39.491Z,8.40
2022-12-22T17:15:41.882Z,8.30
2022-12-22T17:20:46.056Z,8.30
2022-12-22T17:25:48.392Z,8.30
2022-12-22T17:30:51.021Z,8.20
2022-12-22T17:35:53.931Z,8.20
2022-12-22T17:40:57.699Z,8.10
2022-12-22T17:46:00.443Z,8.00
2022-12-22T17:51:02.911Z,8.00
2022-12-22T17:56:08.695Z,7.90
2022-12-22T18:01:21.375Z,7.80
2022-12-22T18:06:28.971Z,7.70
2022-12-22T18:11:31.381Z,7.70
2022-12-22T18:16:33.784Z,7.60
2022-12-22T18:21:36.165Z,7.60
2022-12-22T18:26:38.482Z,7.60
2022-12-22T18:31:41.788Z,7.50
2022-12-22T18:36:45.764Z,7.50
2022-12-22T18:41:48.286Z,7.50
2022-12-22T18:46:50.925Z,7.50
2022-12-22T18:51:53.948Z,7.50
2022-12-22T18:56:56.309Z,7.50
2022-12-22T19:02:04.467Z,7.50
2022-12-22T19:07:15.596Z,7.40
2022-12-22T19:12:22.979Z,7.40
2022-12-22T19:17:28.965Z,7.40
2022-12-22T19:22:31.535Z,7.40
2022-12-22T19:27:33.969Z,7.20
2022-12-22T19:32:42.116Z,7.10
2022-12-22T19:37:46.337Z,7.10
2022-12-22T19:42:50.628Z,7.00
2022-12-22T19:47:55.419Z,6.80
2022-12-22T19:53:00.095Z,6.90
2022-12-22T19:58:02.828Z,6.80
2022-12-22T20:03:06.281Z,6.90
2022-12-22T20:08:08.762Z,6.90
2022-12-22T20:13:21.728Z,6.80
2022-12-22T20:18:29.301Z,6.80
2022-12-22T20:23:37.228Z,6.80
2022-12-22T20:28:40.755Z,6.80
2022-12-22T20:33:43.534Z,6.80
2022-12-22T20:38:47.204Z,6.70
2022-12-22T20:43:50.123Z,6.70
2022-12-22T20:48:56.807Z,6.70
2022-12-22T20:54:00.382Z,6.70
2022-12-22T20:59:17.687Z,6.60
2022-12-22T21:04:21.633Z,6.60
2022-12-22T21:09:24.705Z,6.60
2022-12-22T21:14:27.036Z,6.50
2022-12-22T21:19:29.436Z,6.60
2022-12-22T21:24:31.853Z,6.60
2022-12-22T21:29:34.591Z,6.60
2022-12-22T21:34:36.787Z,6.70
2022-12-22T21:39:42.684Z,6.80
2022-12-22T21:44:45.565Z,6.80
2022-12-22T21:49:47.925Z,6.90
2022-12-22T21:54:50.201Z,7.00
2022-12-22T21:59:52.569Z,7.10
2022-12-22T22:04:55.492Z,7.10
2022-12-22T22:09:57.908Z,7.10
2022-12-22T22:15:02.086Z,7.10
2022-12-22T22:21:04.848Z,6.90
2022-12-22T22:27:48.049Z,6.80
2022-12-22T22:33:30.311Z,6.70
2022-12-22T22:38:32.500Z,6.70
2022-12-22T22:43:34.718Z,6.70
2022-12-22T22:48:37.343Z,6.60
2022-12-22T22:53:39.624Z,6.60
2022-12-22T22:58:42.063Z,6.50
2022-12-22T23:03:44.801Z,6.50
2022-12-22T23:08:49.171Z,6.50
2022-12-22T23:13:53.976Z,6.40
2022-12-22T23:18:56.270Z,6.30
2022-12-22T23:23:58.805Z,6.40
2022-12-22T23:29:03.749Z,6.40
2022-12-22T23:34:06.363Z,6.50
2022-12-22T23:39:08.783Z,6.50
2022-12-22T23:44:11.093Z,6.60
2022-12-22T23:49:14.072Z,6.60
2022-12-22T23:54:16.353Z,6.60
2022-12-22T23:59:18.615Z,6.60
